createdAt,value
2018-02-21T00:01:26.135Z,34.97
2018-02-21T00:03:54.516Z,33.90
2018-02-21T00:06:22.789Z,34.43
2018-02-21T00:08:51.044Z,32.07
2018-02-21T00:11:20.149Z,35.23
2018-02-21T00:13:48.418Z,34.17
2018-02-21T00:16:17.426Z,36.73
2018-02-21T00:18:45.693Z,34.13
2018-02-21T00:21:14.065Z,32.37
2018-02-21T00:23:43.435Z,35.67
2018-02-21T00:26:11.690Z,32.87
2018-02-21T00:28:39.933Z,33.97
2018-02-21T00:31:08.222Z,34.20
2018-02-21T00:33:36.678Z,36.00
2018-02-21T00:36:05.724Z,37.47
2018-02-21T00:38:34.084Z,35.37
2018-02-21T00:41:02.341Z,36.17
2018-02-21T00:43:30.610Z,36.23
2018-02-21T00:45:58.918Z,35.40
2018-02-21T00:48:27.800Z,37.30
2018-02-21T00:50:56.055Z,35.10
2018-02-21T00:53:24.347Z,34.77
2018-02-21T00:55:52.612Z,33.60
2018-02-21T00:58:20.878Z,33.37
2018-02-21T01:00:50.521Z,33.47
2018-02-21T01:03:18.857Z,31.80
2018-02-21T01:05:47.088Z,33.43
2018-02-21T01:08:15.581Z,31.57
2018-02-21T01:10:43.825Z,31.03
2018-02-21T01:13:12.066Z,33.63
2018-02-21T01:15:40.352Z,31.17
2018-02-21T01:18:08.604Z,33.10
2018-02-21T01:20:36.869Z,31.80
2018-02-21T01:23:05.176Z,34.13
2018-02-21T01:25:34.251Z,33.73
2018-02-21T01:28:03.223Z,34.00
2018-02-21T01:30:32.440Z,35.70
2018-02-21T01:33:00.687Z,33.93
2018-02-21T01:35:28.997Z,34.43
2018-02-21T01:37:57.478Z,34.03
2018-02-21T01:40:25.752Z,32.50
2018-02-21T01:42:53.990Z,32.23
2018-02-21T01:45:22.221Z,32.90
2018-02-21T01:47:51.379Z,32.80
2018-02-21T01:50:20.226Z,35.00
2018-02-21T01:52:48.482Z,32.03
2018-02-21T01:55:17.564Z,32.90
2018-02-21T01:57:46.680Z,31.10
2018-02-21T02:00:14.943Z,33.70
2018-02-21T02:02:44.081Z,32.73
2018-02-21T02:05:12.360Z,32.30
2018-02-21T02:07:40.624Z,30.90
2018-02-21T02:10:11.213Z,32.27
2018-02-21T02:12:39.532Z,32.13
2018-02-21T02:15:07.906Z,32.07
2018-02-21T02:17:36.232Z,31.03
2018-02-21T02:20:04.508Z,31.90
2018-02-21T02:22:33.580Z,32.23
2018-02-21T02:25:05.837Z,31.80
2018-02-21T02:27:34.095Z,33.40
2018-02-21T02:30:02.806Z,32.67
2018-02-21T02:32:31.151Z,32.60
2018-02-21T02:35:00.237Z,35.03
2018-02-21T02:37:29.345Z,33.97
2018-02-21T02:40:01.589Z,34.70
2018-02-21T02:42:29.838Z,36.90
2018-02-21T02:44:58.092Z,33.60
2018-02-21T02:47:26.340Z,35.07
2018-02-21T02:49:54.694Z,38.10
2018-02-21T02:52:22.947Z,37.43
2018-02-21T02:54:51.239Z,37.90
2018-02-21T02:57:19.490Z,39.30
2018-02-21T02:59:47.752Z,38.40
2018-02-21T03:02:15.992Z,36.30
2018-02-21T03:04:45.123Z,34.90
2018-02-21T03:07:13.423Z,35.97
2018-02-21T03:09:41.669Z,35.00
2018-02-21T03:12:10.249Z,37.23
2018-02-21T03:14:38.671Z,37.70
2018-02-21T03:17:06.913Z,36.70
2018-02-21T03:19:35.169Z,35.03
2018-02-21T03:22:03.476Z,38.10
2018-02-21T03:24:32.096Z,36.10
2018-02-21T03:27:01.227Z,36.77
2018-02-21T03:29:29.970Z,36.70
2018-02-21T03:31:58.817Z,36.83
2018-02-21T03:34:27.112Z,37.43
2018-02-21T03:36:55.364Z,39.57
2018-02-21T03:39:23.634Z,37.83
2018-02-21T03:41:51.978Z,37.80
2018-02-21T03:44:20.201Z,38.57
2018-02-21T03:46:48.463Z,40.90
2018-02-21T03:49:16.725Z,40.33
2018-02-21T03:51:45.747Z,41.77
2018-02-21T03:54:14.084Z,40.50
2018-02-21T03:56:43.202Z,40.90
2018-02-21T03:59:11.473Z,42.20
2018-02-21T04:01:39.768Z,41.80
2018-02-21T04:04:08.032Z,39.80
2018-02-21T04:06:36.305Z,41.17
2018-02-21T04:09:05.414Z,41.40
2018-02-21T04:11:33.702Z,42.17
2018-02-21T04:14:01.954Z,40.17
2018-02-21T04:16:30.229Z,40.77
2018-02-21T04:19:00.169Z,41.07
2018-02-21T04:21:28.440Z,40.67
2018-02-21T04:23:56.785Z,41.00
2018-02-21T04:26:25.018Z,43.67
2018-02-21T04:28:53.285Z,43.33
2018-02-21T04:31:22.054Z,42.97
2018-02-21T04:33:50.410Z,41.60
2018-02-21T04:36:18.718Z,43.50
2018-02-21T04:38:46.978Z,43.00
2018-02-21T04:41:15.221Z,44.80
2018-02-21T04:43:44.345Z,44.50
2018-02-21T04:46:12.590Z,43.63
2018-02-21T04:48:40.821Z,43.73
2018-02-21T04:51:09.562Z,42.83
2018-02-21T04:53:38.715Z,44.07
2018-02-21T04:56:12.601Z,45.27
2018-02-21T04:58:46.570Z,47.43
2018-02-21T05:01:14.997Z,43.50
2018-02-21T05:03:43.248Z,42.17
2018-02-21T05:06:11.601Z,42.37
2018-02-21T05:08:39.832Z,43.00
2018-02-21T05:11:08.066Z,43.07
2018-02-21T05:13:37.118Z,44.40
2018-02-21T05:16:05.428Z,45.17
2018-02-21T05:18:33.677Z,45.67
2018-02-21T05:21:01.953Z,44.70
2018-02-21T05:23:30.253Z,49.10
2018-02-21T05:25:59.401Z,43.30
2018-02-21T05:28:27.649Z,45.73
2018-02-21T05:30:55.890Z,45.23
2018-02-21T05:33:24.210Z,47.70
2018-02-21T05:35:52.566Z,48.10
2018-02-21T05:38:21.693Z,47.83
2018-02-21T05:40:50.140Z,44.50
2018-02-21T05:43:18.648Z,46.87
2018-02-21T05:45:48.663Z,46.50
2018-02-21T05:48:16.922Z,47.50
2018-02-21T05:50:45.943Z,43.87
2018-02-21T05:53:15.017Z,46.13
2018-02-21T05:55:44.126Z,44.67
2018-02-21T05:58:12.393Z,46.97
2018-02-21T06:00:40.764Z,49.40
2018-02-21T06:03:09.028Z,47.53
2018-02-21T06:05:37.288Z,47.57
2018-02-21T06:08:05.523Z,45.80
2018-02-21T06:10:33.817Z,46.20
2018-02-21T06:13:02.249Z,49.00
2018-02-21T06:15:31.298Z,47.40
2018-02-21T06:17:59.646Z,47.10
2018-02-21T06:20:27.979Z,45.83
2018-02-21T06:22:56.250Z,45.70
2018-02-21T06:25:24.514Z,46.47
2018-02-21T06:27:52.802Z,49.27
2018-02-21T06:30:21.886Z,48.83
2018-02-21T06:32:50.142Z,48.17
2018-02-21T06:35:18.368Z,47.97
2018-02-21T06:37:47.559Z,48.90
2018-02-21T06:40:15.788Z,48.90
2018-02-21T06:42:44.062Z,48.00
2018-02-21T06:45:12.293Z,49.87
2018-02-21T06:47:41.397Z,47.63
2018-02-21T06:50:09.747Z,47.17
2018-02-21T06:52:37.993Z,51.17
2018-02-21T06:55:06.233Z,50.70
2018-02-21T06:57:34.507Z,48.60
2018-02-21T07:00:02.767Z,45.17
2018-02-21T07:02:34.851Z,47.97
2018-02-21T07:05:03.229Z,49.40
2018-02-21T07:07:31.706Z,48.03
2018-02-21T07:10:00.823Z,45.00
2018-02-21T07:12:29.154Z,49.03
2018-02-21T07:14:57.398Z,51.53
2018-02-21T07:17:25.694Z,50.90
2018-02-21T07:19:53.958Z,48.93
2018-02-21T07:22:22.212Z,48.93
2018-02-21T07:24:50.513Z,46.53
2018-02-21T07:27:18.752Z,48.37
2018-02-21T07:29:47.042Z,48.10
2018-02-21T07:32:15.328Z,46.40
2018-02-21T07:34:43.561Z,49.90
2018-02-21T07:37:11.826Z,48.07
2018-02-21T07:39:40.984Z,49.27
2018-02-21T07:42:09.245Z,45.70
2018-02-21T07:44:37.482Z,44.93
2018-02-21T07:47:06.602Z,50.73
2018-02-21T07:49:36.958Z,50.00
2018-02-21T07:52:05.333Z,48.13
2018-02-21T07:54:33.588Z,47.87
2018-02-21T07:57:01.829Z,49.97
2018-02-21T07:59:30.974Z,50.60
2018-02-21T08:01:59.402Z,50.93
2018-02-21T08:04:28.414Z,44.07
2018-02-21T08:06:56.669Z,43.00
2018-02-21T08:09:24.936Z,48.67
2018-02-21T08:11:53.174Z,47.87
2018-02-21T08:14:21.475Z,50.17
2018-02-21T08:16:50.507Z,49.70
2018-02-21T08:19:20.092Z,49.07
2018-02-21T08:21:48.427Z,51.67
2018-02-21T08:24:16.764Z,50.17
2018-02-21T08:26:45.943Z,48.50
2018-02-21T08:29:14.162Z,47.97
2018-02-21T08:31:42.411Z,51.63
2018-02-21T08:34:11.541Z,48.90
2018-02-21T08:36:39.811Z,48.67
2018-02-21T08:39:08.058Z,47.87
2018-02-21T08:41:37.184Z,48.27
2018-02-21T08:44:05.436Z,49.20
2018-02-21T08:46:33.709Z,48.00
2018-02-21T08:49:02.877Z,46.83
2018-02-21T08:51:31.118Z,48.57
2018-02-21T08:53:59.379Z,46.03
2018-02-21T08:56:27.654Z,46.63
2018-02-21T08:58:55.952Z,46.30
2018-02-21T09:01:24.983Z,45.47
2018-02-21T09:03:53.264Z,45.57
2018-02-21T09:06:21.641Z,44.70
2018-02-21T09:08:49.862Z,44.50
2018-02-21T09:11:18.112Z,41.73
2018-02-21T09:13:47.280Z,42.40
2018-02-21T09:16:15.530Z,46.43
2018-02-21T09:18:43.845Z,43.30
2018-02-21T09:21:12.119Z,43.80
2018-02-21T09:23:40.471Z,43.93
2018-02-21T09:26:08.817Z,41.87
2018-02-21T09:28:37.126Z,45.23
2018-02-21T09:31:05.486Z,43.37
2018-02-21T09:33:33.813Z,44.33
2018-02-21T09:36:02.905Z,40.37
2018-02-21T09:38:32.220Z,40.90
2018-02-21T09:41:01.543Z,44.07
2018-02-21T09:43:29.814Z,41.83
2018-02-21T09:45:58.682Z,38.80
2018-02-21T09:48:27.794Z,38.70
2018-02-21T09:50:56.091Z,40.97
2018-02-21T09:53:24.382Z,37.10
2018-02-21T09:55:52.649Z,37.40
2018-02-21T09:58:20.906Z,36.90
2018-02-21T10:00:49.177Z,34.57
2018-02-21T10:03:18.454Z,33.07
2018-02-21T10:05:47.478Z,36.93
2018-02-21T10:08:15.869Z,37.30
2018-02-21T10:10:44.171Z,37.67
2018-02-21T10:13:12.462Z,35.57
2018-02-21T10:15:41.496Z,36.43
2018-02-21T10:18:09.763Z,38.00
2018-02-21T10:20:39.601Z,32.67
2018-02-21T10:23:07.961Z,37.37
2018-02-21T10:25:36.243Z,35.23
2018-02-21T10:28:04.543Z,35.07
2018-02-21T10:30:32.788Z,32.53
2018-02-21T10:33:01.807Z,33.27
2018-02-21T10:35:30.116Z,34.50
2018-02-21T10:37:58.367Z,30.57
2018-02-21T10:40:26.706Z,33.07
2018-02-21T10:42:55.828Z,31.70
2018-02-21T10:45:24.073Z,31.33
2018-02-21T10:47:53.231Z,29.03
2018-02-21T10:50:21.670Z,29.50
2018-02-21T10:52:49.920Z,30.40
2018-02-21T10:55:19.270Z,30.17
2018-02-21T10:57:47.516Z,27.70
2018-02-21T11:00:21.399Z,27.80
2018-02-21T11:02:49.625Z,30.80
2018-02-21T11:05:17.978Z,28.10
2018-02-21T11:07:46.373Z,27.30
2018-02-21T11:10:14.641Z,25.73
2018-02-21T11:12:42.986Z,27.53
2018-02-21T11:15:11.468Z,24.13
2018-02-21T11:17:39.700Z,25.70
2018-02-21T11:20:07.930Z,25.20
2018-02-21T11:22:37.070Z,24.47
2018-02-21T11:25:05.394Z,26.27
2018-02-21T11:27:33.623Z,23.53
2018-02-21T11:30:02.528Z,25.33
2018-02-21T11:32:30.808Z,26.43
2018-02-21T11:34:59.045Z,22.90
2018-02-21T11:37:27.375Z,21.30
2018-02-21T11:39:56.657Z,23.60
2018-02-21T11:42:24.906Z,22.47
2018-02-21T11:44:53.202Z,22.27
2018-02-21T11:47:21.533Z,26.07
2018-02-21T11:49:49.790Z,23.33
2018-02-21T11:52:18.056Z,22.80
2018-02-21T11:54:46.364Z,22.13
2018-02-21T11:57:14.729Z,22.80
2018-02-21T11:59:43.957Z,20.63
2018-02-21T12:02:12.481Z,22.20
2018-02-21T12:04:40.862Z,23.97
2018-02-21T12:07:09.120Z,21.50
2018-02-21T12:09:37.376Z,21.10
2018-02-21T12:12:05.637Z,22.50
2018-02-21T12:14:34.742Z,22.30
2018-02-21T12:17:03.025Z,19.50
2018-02-21T12:19:31.301Z,22.10
2018-02-21T12:21:59.560Z,20.80
2018-02-21T12:24:27.868Z,20.93
2018-02-21T12:26:56.134Z,21.07
2018-02-21T12:29:24.389Z,20.43
2018-02-21T12:31:57.509Z,20.43
2018-02-21T12:34:26.142Z,21.50
2018-02-21T12:36:54.367Z,19.70
2018-02-21T12:39:28.634Z,21.87
2018-02-21T12:41:57.018Z,20.27
2018-02-21T12:44:26.152Z,19.50
2018-02-21T12:46:54.665Z,20.07
2018-02-21T12:49:23.138Z,19.90
2018-02-21T12:51:51.965Z,19.83
2018-02-21T12:54:21.792Z,19.00
2018-02-21T12:56:50.053Z,20.73
2018-02-21T12:59:19.163Z,24.53
2018-02-21T13:01:47.443Z,23.30
2018-02-21T13:04:15.721Z,23.13
2018-02-21T13:06:44.094Z,21.87
2018-02-21T13:09:13.203Z,21.60
2018-02-21T13:11:41.491Z,22.13
2018-02-21T13:14:09.739Z,19.57
2018-02-21T13:16:39.074Z,19.27
2018-02-21T13:19:08.166Z,22.50
2018-02-21T13:21:36.484Z,22.70
2018-02-21T13:24:08.915Z,22.00
2018-02-21T13:26:37.178Z,23.73
2018-02-21T13:29:05.442Z,22.53
2018-02-21T13:31:34.605Z,22.37
2018-02-21T13:34:02.857Z,21.90
2018-02-21T13:36:31.130Z,21.97
2018-02-21T13:38:59.390Z,21.00
2018-02-21T13:41:27.666Z,20.70
2018-02-21T13:43:56.055Z,22.23
2018-02-21T13:46:25.586Z,23.90
2018-02-21T13:48:53.937Z,20.77
2018-02-21T13:51:22.783Z,22.27
2018-02-21T13:53:50.993Z,24.37
2018-02-21T13:56:19.250Z,23.60
2018-02-21T13:58:47.651Z,21.73
2018-02-21T14:01:16.778Z,21.93
2018-02-21T14:03:45.139Z,23.60
2018-02-21T14:06:13.506Z,24.67
2018-02-21T14:08:42.413Z,24.20
2018-02-21T14:11:10.665Z,23.33
2018-02-21T14:13:38.934Z,21.77
2018-02-21T14:16:07.224Z,23.57
2018-02-21T14:18:35.512Z,23.97
2018-02-21T14:21:03.808Z,24.73
2018-02-21T14:23:32.260Z,23.13
2018-02-21T14:26:00.565Z,24.57
2018-02-21T14:28:28.833Z,25.17
2018-02-21T14:30:57.250Z,23.07
2018-02-21T14:33:26.826Z,22.77
2018-02-21T14:35:55.078Z,23.53
2018-02-21T14:38:23.373Z,23.63
2018-02-21T14:40:51.627Z,20.43
2018-02-21T14:43:20.954Z,22.90
2018-02-21T14:45:49.225Z,23.10
2018-02-21T14:48:17.740Z,21.93
2018-02-21T14:50:45.976Z,22.50
2018-02-21T14:53:14.265Z,25.30
2018-02-21T14:55:43.216Z,26.37
2018-02-21T14:58:15.573Z,25.43
2018-02-21T15:00:43.842Z,26.37
2018-02-21T15:03:12.315Z,25.60
2018-02-21T15:05:40.826Z,27.37
2018-02-21T15:08:09.244Z,27.23
2018-02-21T15:10:37.726Z,27.07
2018-02-21T15:13:05.989Z,26.27
2018-02-21T15:15:36.087Z,26.17
2018-02-21T15:18:05.085Z,27.47
2018-02-21T15:20:34.339Z,24.10
2018-02-21T15:23:02.593Z,24.60
2018-02-21T15:25:30.845Z,24.40
2018-02-21T15:27:59.218Z,26.33
2018-02-21T15:30:27.617Z,25.27
2018-02-21T15:32:55.889Z,24.17
2018-02-21T15:35:24.162Z,26.90
2018-02-21T15:37:52.430Z,24.70
2018-02-21T15:40:20.700Z,24.20
2018-02-21T15:42:48.965Z,24.63
2018-02-21T15:45:17.325Z,26.13
2018-02-21T15:47:45.516Z,25.20
2018-02-21T15:50:14.622Z,25.20
2018-02-21T15:52:42.898Z,26.70
2018-02-21T15:55:11.180Z,24.80
2018-02-21T15:57:39.666Z,22.63
2018-02-21T16:00:07.928Z,24.40
2018-02-21T16:02:36.293Z,22.80
2018-02-21T16:05:04.595Z,23.27
2018-02-21T16:07:32.881Z,23.60
2018-02-21T16:10:01.118Z,21.50
2018-02-21T16:12:29.421Z,23.03
2018-02-21T16:14:57.839Z,21.97
2018-02-21T16:17:30.245Z,19.77
2018-02-21T16:19:59.843Z,22.00
2018-02-21T16:22:28.121Z,20.63
2018-02-21T16:24:56.376Z,20.57
2018-02-21T16:27:24.628Z,20.73
2018-02-21T16:29:52.906Z,21.03
2018-02-21T16:32:21.154Z,20.77
2018-02-21T16:34:49.411Z,22.33
2018-02-21T16:37:18.577Z,23.50
2018-02-21T16:39:47.550Z,22.97
2018-02-21T16:42:15.882Z,20.70
2018-02-21T16:44:44.269Z,22.20
2018-02-21T16:47:12.667Z,23.10
2018-02-21T16:49:40.975Z,22.80
2018-02-21T16:52:09.260Z,24.00
2018-02-21T16:54:38.496Z,22.40
2018-02-21T16:57:06.848Z,22.50
2018-02-21T16:59:35.087Z,22.70
2018-02-21T17:02:03.362Z,22.40
2018-02-21T17:04:31.689Z,22.97
2018-02-21T17:06:59.954Z,23.43
2018-02-21T17:09:28.237Z,23.53
2018-02-21T17:11:56.485Z,24.03
2018-02-21T17:14:24.762Z,21.57
2018-02-21T17:16:53.034Z,23.20
2018-02-21T17:19:21.309Z,21.23
2018-02-21T17:21:49.614Z,23.60
2018-02-21T17:24:17.865Z,23.60
2018-02-21T17:26:46.169Z,22.73
2018-02-21T17:29:15.240Z,23.03
2018-02-21T17:31:43.513Z,25.60
2018-02-21T17:34:11.787Z,25.03
2018-02-21T17:36:40.096Z,22.63
2018-02-21T17:39:08.356Z,23.30
2018-02-21T17:41:36.617Z,21.03
2018-02-21T17:44:05.577Z,22.90
2018-02-21T17:46:34.249Z,23.23
2018-02-21T17:49:02.657Z,24.23
2018-02-21T17:51:31.868Z,22.30
2018-02-21T17:54:00.349Z,23.03
2018-02-21T17:56:30.104Z,23.27
2018-02-21T17:59:02.950Z,23.70
2018-02-21T18:01:31.489Z,24.97
2018-02-21T18:04:00.145Z,26.33
2018-02-21T18:06:38.386Z,22.20
2018-02-21T18:09:06.654Z,22.30
2018-02-21T18:11:34.941Z,25.03
2018-02-21T18:14:03.241Z,25.20
2018-02-21T18:16:31.524Z,22.57
2018-02-21T18:18:59.835Z,24.97
2018-02-21T18:21:33.857Z,23.80
2018-02-21T18:24:02.403Z,23.77
2018-02-21T18:26:30.722Z,24.00
2018-02-21T18:28:59.813Z,23.70
2018-02-21T18:31:28.886Z,22.83
2018-02-21T18:33:57.738Z,22.60
2018-02-21T18:36:26.006Z,22.40
2018-02-21T18:38:54.374Z,25.20
2018-02-21T18:41:22.650Z,20.57
2018-02-21T18:43:50.956Z,21.90
2018-02-21T18:46:19.204Z,19.53
2018-02-21T18:48:48.305Z,21.47
2018-02-21T18:51:16.827Z,19.57
2018-02-21T18:53:45.084Z,19.97
2018-02-21T18:56:13.374Z,20.57
2018-02-21T18:58:41.646Z,19.20
2018-02-21T19:01:09.922Z,17.30
2018-02-21T19:03:38.231Z,18.00
2018-02-21T19:06:06.501Z,19.07
2018-02-21T19:08:34.746Z,17.93
2018-02-21T19:11:03.054Z,17.33
2018-02-21T19:13:31.308Z,17.20
2018-02-21T19:16:00.564Z,17.67
2018-02-21T19:18:28.886Z,17.77
2018-02-21T19:20:58.333Z,19.17
2018-02-21T19:23:27.442Z,17.27
2018-02-21T19:25:56.138Z,17.10
2018-02-21T19:28:24.397Z,22.27
2018-02-21T19:30:53.773Z,18.83
2018-02-21T19:33:21.989Z,18.37
2018-02-21T19:35:50.337Z,18.97
2018-02-21T19:38:18.866Z,18.60
2018-02-21T19:40:47.284Z,18.73
2018-02-21T19:43:15.578Z,17.27
2018-02-21T19:45:43.862Z,18.43
2018-02-21T19:48:12.106Z,17.27
2018-02-21T19:50:40.367Z,17.40
2018-02-21T19:53:09.626Z,16.80
2018-02-21T19:55:37.897Z,18.50
2018-02-21T19:58:09.116Z,16.70
2018-02-21T20:00:37.414Z,18.70
2018-02-21T20:03:05.802Z,18.83
2018-02-21T20:05:34.060Z,17.27
2018-02-21T20:08:03.329Z,17.07
2018-02-21T20:10:32.483Z,17.17
2018-02-21T20:13:00.753Z,18.07
2018-02-21T20:15:29.858Z,17.20
2018-02-21T20:17:59.013Z,17.43
2018-02-21T20:20:28.155Z,16.70
2018-02-21T20:22:56.604Z,16.00
2018-02-21T20:25:25.737Z,17.20
2018-02-21T20:27:54.005Z,19.50
2018-02-21T20:30:23.771Z,17.30
2018-02-21T20:32:52.081Z,16.73
2018-02-21T20:35:20.479Z,16.60
2018-02-21T20:37:48.732Z,17.63
2018-02-21T20:40:17.910Z,17.50
2018-02-21T20:42:46.133Z,18.00
2018-02-21T20:45:14.453Z,18.27
2018-02-21T20:47:43.496Z,16.80
2018-02-21T20:50:12.448Z,17.43
2018-02-21T20:52:40.725Z,20.00
2018-02-21T20:55:08.972Z,18.10
2018-02-21T20:57:37.402Z,18.37
2018-02-21T21:00:08.621Z,17.13
2018-02-21T21:02:39.453Z,18.20
2018-02-21T21:05:07.671Z,17.73
2018-02-21T21:07:36.068Z,17.87
2018-02-21T21:10:04.543Z,18.70
2018-02-21T21:12:32.951Z,19.43
2018-02-21T21:15:01.292Z,19.10
2018-02-21T21:17:29.573Z,18.30
2018-02-21T21:19:57.828Z,18.20
2018-02-21T21:22:27.199Z,17.60
2018-02-21T21:24:55.416Z,17.73
2018-02-21T21:27:23.697Z,17.93
2018-02-21T21:29:51.970Z,18.83
2018-02-21T21:32:20.229Z,17.47
2018-02-21T21:34:48.504Z,18.10
2018-02-21T21:37:17.613Z,18.93
2018-02-21T21:39:46.650Z,18.47
2018-02-21T21:42:14.986Z,18.10
2018-02-21T21:44:43.237Z,18.90
2018-02-21T21:47:12.268Z,18.40
2018-02-21T21:49:40.625Z,17.87
2018-02-21T21:52:09.145Z,17.90
2018-02-21T21:54:37.430Z,17.90
2018-02-21T21:57:05.791Z,19.23
2018-02-21T21:59:34.337Z,19.23
2018-02-21T22:02:03.715Z,18.77
2018-02-21T22:04:31.963Z,18.37
2018-02-21T22:07:00.261Z,18.80
2018-02-21T22:09:28.550Z,18.40
2018-02-21T22:11:56.943Z,19.50
2018-02-21T22:14:26.059Z,17.10
2018-02-21T22:16:54.326Z,19.10
2018-02-21T22:19:22.605Z,19.43
2018-02-21T22:21:50.873Z,19.40
2018-02-21T22:24:19.174Z,19.17
2018-02-21T22:26:47.398Z,19.43
2018-02-21T22:29:15.698Z,18.87
2018-02-21T22:31:44.872Z,19.33
2018-02-21T22:34:27.339Z,17.90
2018-02-21T22:37:01.585Z,19.23
2018-02-21T22:39:30.646Z,17.63
2018-02-21T22:41:59.085Z,18.30
2018-02-21T22:44:28.341Z,19.00
2018-02-21T22:46:56.808Z,17.80
2018-02-21T22:49:25.232Z,18.20
2018-02-21T22:51:54.838Z,18.70
2018-02-21T22:54:24.072Z,18.73
2018-02-21T22:56:52.956Z,18.20
2018-02-21T22:59:21.435Z,20.10
2018-02-21T23:01:49.875Z,19.20
2018-02-21T23:04:19.169Z,19.20
2018-02-21T23:06:47.565Z,17.47
2018-02-21T23:09:16.052Z,18.57
2018-02-21T23:11:44.498Z,18.80
2018-02-21T23:14:12.921Z,19.57
2018-02-21T23:16:41.433Z,17.60
2018-02-21T23:19:09.745Z,19.63
2018-02-21T23:21:38.969Z,18.13
2018-02-21T23:24:07.308Z,16.27
2018-02-21T23:26:35.778Z,19.50
2018-02-21T23:29:04.412Z,18.40
2018-02-21T23:31:32.675Z,18.07
2018-02-21T23:34:00.930Z,20.13
2018-02-21T23:36:30.826Z,17.77
2018-02-21T23:38:59.073Z,18.43
2018-02-21T23:41:28.774Z,17.40
2018-02-21T23:43:57.885Z,19.00
2018-02-21T23:46:26.156Z,17.33
2018-02-21T23:48:55.458Z,19.83
2018-02-21T23:51:24.485Z,19.13
2018-02-21T23:53:52.857Z,19.40
2018-02-21T23:56:21.102Z,19.00
2018-02-21T23:58:50.637Z,19.03
